sensor_id;sensor_type;location;lat;lon;timestamp;temperature;humidity
5901;DHT22;2976;49.764;9.796;2023-07-20T00:02:20;16.10;99.90
5901;DHT22;2976;49.764;9.796;2023-07-20T00:04:46;16.10;99.90
5901;DHT22;2976;49.764;9.796;2023-07-20T00:07:12;16.10;99.90
5901;DHT22;2976;49.764;9.796;2023-07-20T00:09:37;16.10;99.90
5901;DHT22;2976;49.764;9.796;2023-07-20T00:12:03;16.20;99.90
5901;DHT22;2976;49.764;9.796;2023-07-20T00:14:28;16.20;99.90
5901;DHT22;2976;49.764;9.796;2023-07-20T00:16:55;16.10;99.90
5901;DHT22;2976;49.764;9.796;2023-07-20T00:19:23;16.10;99.90
5901;DHT22;2976;49.764;9.796;2023-07-20T00:21:49;16.10;99.90
5901;DHT22;2976;49.764;9.796;2023-07-20T00:24:14;16.10;99.90
5901;DHT22;2976;49.764;9.796;2023-07-20T00:26:40;16.00;99.90
5901;DHT22;2976;49.764;9.796;2023-07-20T00:29:05;16.00;99.90
5901;DHT22;2976;49.764;9.796;2023-07-20T00:31:31;16.00;99.90
5901;DHT22;2976;49.764;9.796;2023-07-20T00:33:56;16.00;99.90
5901;DHT22;2976;49.764;9.796;2023-07-20T00:36:22;16.00;99.90
5901;DHT22;2976;49.764;9.796;2023-07-20T00:38:48;15.90;99.90
5901;DHT22;2976;49.764;9.796;2023-07-20T00:41:13;16.00;99.90
5901;DHT22;2976;49.764;9.796;2023-07-20T00:43:40;15.90;99.90
5901;DHT22;2976;49.764;9.796;2023-07-20T00:46:05;16.00;99.90
5901;DHT22;2976;49.764;9.796;2023-07-20T00:48:32;16.00;99.90
5901;DHT22;2976;49.764;9.796;2023-07-20T00:50:59;16.00;99.90
5901;DHT22;2976;49.764;9.796;2023-07-20T00:53:25;16.00;99.90
5901;DHT22;2976;49.764;9.796;2023-07-20T00:55:51;16.00;99.90
5901;DHT22;2976;49.764;9.796;2023-07-20T00:58:16;16.00;99.90
5901;DHT22;2976;49.764;9.796;2023-07-20T01:00:42;16.00;99.90
5901;DHT22;2976;49.764;9.796;2023-07-20T01:03:07;16.00;99.90
5901;DHT22;2976;49.764;9.796;2023-07-20T01:05:51;16.00;99.90
5901;DHT22;2976;49.764;9.796;2023-07-20T01:08:44;16.10;99.90
5901;DHT22;2976;49.764;9.796;2023-07-20T01:13:52;16.10;99.90
5901;DHT22;2976;49.764;9.796;2023-07-20T01:16:17;16.10;99.90
5901;DHT22;2976;49.764;9.796;2023-07-20T01:18:43;16.10;99.90
5901;DHT22;2976;49.764;9.796;2023-07-20T01:21:15;16.10;99.90
5901;DHT22;2976;49.764;9.796;2023-07-20T01:27:44;16.00;99.90
5901;DHT22;2976;49.764;9.796;2023-07-20T01:30:17;16.00;99.90
5901;DHT22;2976;49.764;9.796;2023-07-20T01:32:48;15.90;99.90
5901;DHT22;2976;49.764;9.796;2023-07-20T01:35:16;15.80;99.90
5901;DHT22;2976;49.764;9.796;2023-07-20T01:37:44;15.80;99.90
5901;DHT22;2976;49.764;9.796;2023-07-20T01:40:14;15.70;99.90
5901;DHT22;2976;49.764;9.796;2023-07-20T01:42:44;15.70;99.90
5901;DHT22;2976;49.764;9.796;2023-07-20T01:45:10;15.70;99.90
5901;DHT22;2976;49.764;9.796;2023-07-20T01:47:36;15.60;99.90
5901;DHT22;2976;49.764;9.796;2023-07-20T01:50:01;15.60;99.90
5901;DHT22;2976;49.764;9.796;2023-07-20T01:52:27;15.60;99.90
5901;DHT22;2976;49.764;9.796;2023-07-20T01:54:52;15.60;99.90
5901;DHT22;2976;49.764;9.796;2023-07-20T01:57:18;15.60;99.90
5901;DHT22;2976;49.764;9.796;2023-07-20T01:59:43;15.60;99.90
5901;DHT22;2976;49.764;9.796;2023-07-20T02:02:09;15.50;99.90
5901;DHT22;2976;49.764;9.796;2023-07-20T02:04:34;15.40;99.90
5901;DHT22;2976;49.764;9.796;2023-07-20T02:07:00;15.30;99.90
5901;DHT22;2976;49.764;9.796;2023-07-20T02:09:25;15.20;99.90
5901;DHT22;2976;49.764;9.796;2023-07-20T02:11:51;15.20;99.90
5901;DHT22;2976;49.764;9.796;2023-07-20T02:14:16;15.10;99.90
5901;DHT22;2976;49.764;9.796;2023-07-20T02:16:42;15.10;99.90
5901;DHT22;2976;49.764;9.796;2023-07-20T02:19:08;15.10;99.90
5901;DHT22;2976;49.764;9.796;2023-07-20T02:21:33;15.10;99.90
5901;DHT22;2976;49.764;9.796;2023-07-20T02:23:59;15.00;99.90
5901;DHT22;2976;49.764;9.796;2023-07-20T02:26:25;14.90;99.90
5901;DHT22;2976;49.764;9.796;2023-07-20T02:28:50;14.80;99.90
5901;DHT22;2976;49.764;9.796;2023-07-20T02:31:16;14.70;99.90
5901;DHT22;2976;49.764;9.796;2023-07-20T02:33:41;14.70;99.90
5901;DHT22;2976;49.764;9.796;2023-07-20T02:36:07;14.60;99.90
5901;DHT22;2976;49.764;9.796;2023-07-20T02:38:32;14.60;99.90
5901;DHT22;2976;49.764;9.796;2023-07-20T02:40:58;14.70;99.90
5901;DHT22;2976;49.764;9.796;2023-07-20T02:43:23;14.60;99.90
5901;DHT22;2976;49.764;9.796;2023-07-20T02:45:50;14.50;99.90
5901;DHT22;2976;49.764;9.796;2023-07-20T02:48:16;14.40;99.90
5901;DHT22;2976;49.764;9.796;2023-07-20T02:50:43;14.40;99.90
5901;DHT22;2976;49.764;9.796;2023-07-20T02:53:09;14.30;99.90
5901;DHT22;2976;49.764;9.796;2023-07-20T02:55:34;14.20;99.90
5901;DHT22;2976;49.764;9.796;2023-07-20T02:58:00;14.20;99.90
5901;DHT22;2976;49.764;9.796;2023-07-20T03:00:25;14.10;99.90
5901;DHT22;2976;49.764;9.796;2023-07-20T03:02:51;14.10;99.90
5901;DHT22;2976;49.764;9.796;2023-07-20T03:05:21;14.10;99.90
5901;DHT22;2976;49.764;9.796;2023-07-20T03:07:47;14.00;99.90
5901;DHT22;2976;49.764;9.796;2023-07-20T03:10:13;14.00;99.90
5901;DHT22;2976;49.764;9.796;2023-07-20T03:12:38;13.90;99.90
5901;DHT22;2976;49.764;9.796;2023-07-20T03:15:04;13.90;99.90
5901;DHT22;2976;49.764;9.796;2023-07-20T03:17:30;13.80;99.90
5901;DHT22;2976;49.764;9.796;2023-07-20T03:19:55;13.80;99.90
5901;DHT22;2976;49.764;9.796;2023-07-20T03:22:21;13.80;99.90
5901;DHT22;2976;49.764;9.796;2023-07-20T03:24:47;13.80;99.90
5901;DHT22;2976;49.764;9.796;2023-07-20T03:27:13;13.80;99.90
5901;DHT22;2976;49.764;9.796;2023-07-20T03:29:38;13.80;99.90
5901;DHT22;2976;49.764;9.796;2023-07-20T03:32:05;13.90;99.90
5901;DHT22;2976;49.764;9.796;2023-07-20T03:34:31;13.90;99.90
5901;DHT22;2976;49.764;9.796;2023-07-20T03:36:56;13.90;99.90
5901;DHT22;2976;49.764;9.796;2023-07-20T03:39:22;13.90;99.90
5901;DHT22;2976;49.764;9.796;2023-07-20T03:41:48;13.90;99.90
5901;DHT22;2976;49.764;9.796;2023-07-20T03:44:13;13.90;99.90
5901;DHT22;2976;49.764;9.796;2023-07-20T03:46:39;13.80;99.90
5901;DHT22;2976;49.764;9.796;2023-07-20T03:49:05;13.80;99.90
5901;DHT22;2976;49.764;9.796;2023-07-20T03:51:31;13.80;99.90
5901;DHT22;2976;49.764;9.796;2023-07-20T03:53:57;13.70;99.90
5901;DHT22;2976;49.764;9.796;2023-07-20T03:56:23;13.70;99.90
5901;DHT22;2976;49.764;9.796;2023-07-20T03:58:49;13.60;99.90
5901;DHT22;2976;49.764;9.796;2023-07-20T04:01:15;13.60;99.90
5901;DHT22;2976;49.764;9.796;2023-07-20T04:03:42;13.60;99.90
5901;DHT22;2976;49.764;9.796;2023-07-20T04:06:08;13.60;99.90
5901;DHT22;2976;49.764;9.796;2023-07-20T04:08:34;13.70;99.90
5901;DHT22;2976;49.764;9.796;2023-07-20T04:11:01;13.80;99.90
5901;DHT22;2976;49.764;9.796;2023-07-20T04:13:27;13.90;99.90
5901;DHT22;2976;49.764;9.796;2023-07-20T04:15:53;14.00;99.90
5901;DHT22;2976;49.764;9.796;2023-07-20T04:18:19;14.10;99.90
5901;DHT22;2976;49.764;9.796;2023-07-20T04:20:45;14.10;99.90
5901;DHT22;2976;49.764;9.796;2023-07-20T04:23:10;14.30;99.90
5901;DHT22;2976;49.764;9.796;2023-07-20T04:25:36;14.30;99.90
5901;DHT22;2976;49.764;9.796;2023-07-20T04:28:05;14.40;99.90
5901;DHT22;2976;49.764;9.796;2023-07-20T04:30:34;14.40;99.90
5901;DHT22;2976;49.764;9.796;2023-07-20T04:33:00;14.40;99.90
5901;DHT22;2976;49.764;9.796;2023-07-20T04:38:10;14.60;99.90
5901;DHT22;2976;49.764;9.796;2023-07-20T04:40:35;14.80;99.90
5901;DHT22;2976;49.764;9.796;2023-07-20T04:43:01;14.90;99.90
5901;DHT22;2976;49.764;9.796;2023-07-20T04:45:26;15.20;99.90
5901;DHT22;2976;49.764;9.796;2023-07-20T04:47:52;15.60;99.90
5901;DHT22;2976;49.764;9.796;2023-07-20T04:50:17;16.40;99.90
5901;DHT22;2976;49.764;9.796;2023-07-20T04:52:43;17.30;99.90
5901;DHT22;2976;49.764;9.796;2023-07-20T04:55:11;18.00;99.90
5901;DHT22;2976;49.764;9.796;2023-07-20T04:57:37;18.70;99.90
5901;DHT22;2976;49.764;9.796;2023-07-20T05:00:02;19.50;99.90
5901;DHT22;2976;49.764;9.796;2023-07-20T05:02:29;20.50;99.90
5901;DHT22;2976;49.764;9.796;2023-07-20T05:04:54;21.30;99.90
5901;DHT22;2976;49.764;9.796;2023-07-20T05:07:20;21.90;99.90
5901;DHT22;2976;49.764;9.796;2023-07-20T05:09:45;22.60;99.90
5901;DHT22;2976;49.764;9.796;2023-07-20T05:12:11;22.50;99.90
5901;DHT22;2976;49.764;9.796;2023-07-20T05:14:38;22.60;99.90
5901;DHT22;2976;49.764;9.796;2023-07-20T05:17:04;22.40;99.90
5901;DHT22;2976;49.764;9.796;2023-07-20T05:19:29;22.20;99.90
5901;DHT22;2976;49.764;9.796;2023-07-20T05:21:55;22.40;99.90
5901;DHT22;2976;49.764;9.796;2023-07-20T05:24:21;22.00;99.90
5901;DHT22;2976;49.764;9.796;2023-07-20T05:26:47;21.80;99.90
5901;DHT22;2976;49.764;9.796;2023-07-20T05:29:13;21.50;99.90
5901;DHT22;2976;49.764;9.796;2023-07-20T05:31:38;20.90;99.90
5901;DHT22;2976;49.764;9.796;2023-07-20T05:34:04;20.20;99.90
5901;DHT22;2976;49.764;9.796;2023-07-20T05:36:29;19.70;99.90
5901;DHT22;2976;49.764;9.796;2023-07-20T05:38:56;19.30;99.90
5901;DHT22;2976;49.764;9.796;2023-07-20T05:41:21;18.90;99.90
5901;DHT22;2976;49.764;9.796;2023-07-20T05:43:48;18.60;99.90
5901;DHT22;2976;49.764;9.796;2023-07-20T05:46:13;18.60;99.90
5901;DHT22;2976;49.764;9.796;2023-07-20T05:48:39;19.00;99.90
5901;DHT22;2976;49.764;9.796;2023-07-20T05:51:05;19.70;99.90
5901;DHT22;2976;49.764;9.796;2023-07-20T05:53:31;20.20;99.90
5901;DHT22;2976;49.764;9.796;2023-07-20T05:55:56;21.00;99.90
5901;DHT22;2976;49.764;9.796;2023-07-20T05:58:22;22.20;99.90
5901;DHT22;2976;49.764;9.796;2023-07-20T06:00:49;23.40;99.90
5901;DHT22;2976;49.764;9.796;2023-07-20T06:03:15;23.60;99.90
5901;DHT22;2976;49.764;9.796;2023-07-20T06:05:42;24.50;99.40
5901;DHT22;2976;49.764;9.796;2023-07-20T06:08:08;25.20;96.20
5901;DHT22;2976;49.764;9.796;2023-07-20T06:10:33;26.00;93.60
5901;DHT22;2976;49.764;9.796;2023-07-20T06:12:59;26.60;90.80
5901;DHT22;2976;49.764;9.796;2023-07-20T06:15:33;26.90;85.90
5901;DHT22;2976;49.764;9.796;2023-07-20T06:18:03;27.30;84.30
5901;DHT22;2976;49.764;9.796;2023-07-20T06:20:29;26.80;84.10
5901;DHT22;2976;49.764;9.796;2023-07-20T06:22:55;27.00;82.50
5901;DHT22;2976;49.764;9.796;2023-07-20T06:25:21;27.00;79.50
5901;DHT22;2976;49.764;9.796;2023-07-20T06:27:48;26.20;84.10
5901;DHT22;2976;49.764;9.796;2023-07-20T06:30:14;24.90;90.50
5901;DHT22;2976;49.764;9.796;2023-07-20T06:32:39;25.10;94.20
5901;DHT22;2976;49.764;9.796;2023-07-20T06:35:05;26.00;91.80
5901;DHT22;2976;49.764;9.796;2023-07-20T06:37:31;26.30;89.10
5901;DHT22;2976;49.764;9.796;2023-07-20T06:39:58;26.90;89.70
5901;DHT22;2976;49.764;9.796;2023-07-20T06:42:23;26.40;85.90
5901;DHT22;2976;49.764;9.796;2023-07-20T06:44:49;26.70;87.80
5901;DHT22;2976;49.764;9.796;2023-07-20T06:47:14;26.50;82.90
5901;DHT22;2976;49.764;9.796;2023-07-20T06:49:40;26.60;87.60
5901;DHT22;2976;49.764;9.796;2023-07-20T06:52:06;25.90;84.80
5901;DHT22;2976;49.764;9.796;2023-07-20T06:54:32;25.70;90.70
5901;DHT22;2976;49.764;9.796;2023-07-20T06:56:57;26.20;86.80
5901;DHT22;2976;49.764;9.796;2023-07-20T06:59:23;26.10;89.30
5901;DHT22;2976;49.764;9.796;2023-07-20T07:01:49;26.20;84.10
5901;DHT22;2976;49.764;9.796;2023-07-20T07:04:15;25.60;87.70
5901;DHT22;2976;49.764;9.796;2023-07-20T07:06:40;24.90;87.90
5901;DHT22;2976;49.764;9.796;2023-07-20T07:09:06;24.20;90.70
5901;DHT22;2976;49.764;9.796;2023-07-20T07:11:33;23.60;94.50
5901;DHT22;2976;49.764;9.796;2023-07-20T07:13:59;23.40;97.40
5901;DHT22;2976;49.764;9.796;2023-07-20T07:16:25;23.50;94.20
5901;DHT22;2976;49.764;9.796;2023-07-20T07:18:51;23.40;95.00
5901;DHT22;2976;49.764;9.796;2023-07-20T07:21:17;23.10;96.60
5901;DHT22;2976;49.764;9.796;2023-07-20T07:23:43;22.80;96.60
5901;DHT22;2976;49.764;9.796;2023-07-20T07:26:09;23.00;94.40
5901;DHT22;2976;49.764;9.796;2023-07-20T07:28:35;23.10;94.20
5901;DHT22;2976;49.764;9.796;2023-07-20T07:31:00;22.90;95.10
5901;DHT22;2976;49.764;9.796;2023-07-20T07:33:26;22.70;96.00
5901;DHT22;2976;49.764;9.796;2023-07-20T07:35:52;22.30;97.70
5901;DHT22;2976;49.764;9.796;2023-07-20T07:38:18;21.90;99.90
5901;DHT22;2976;49.764;9.796;2023-07-20T07:40:44;22.10;98.80
5901;DHT22;2976;49.764;9.796;2023-07-20T07:43:09;22.20;97.10
5901;DHT22;2976;49.764;9.796;2023-07-20T07:45:35;22.40;98.40
5901;DHT22;2976;49.764;9.796;2023-07-20T07:48:05;22.70;95.40
5901;DHT22;2976;49.764;9.796;2023-07-20T07:50:31;22.40;97.10
5901;DHT22;2976;49.764;9.796;2023-07-20T07:52:57;22.50;99.90
5901;DHT22;2976;49.764;9.796;2023-07-20T07:55:22;22.10;99.90
5901;DHT22;2976;49.764;9.796;2023-07-20T07:57:48;21.80;99.90
5901;DHT22;2976;49.764;9.796;2023-07-20T08:00:14;21.40;99.90
5901;DHT22;2976;49.764;9.796;2023-07-20T08:02:43;21.20;99.90
5901;DHT22;2976;49.764;9.796;2023-07-20T08:05:09;21.40;99.90
5901;DHT22;2976;49.764;9.796;2023-07-20T08:07:35;21.60;99.90
5901;DHT22;2976;49.764;9.796;2023-07-20T08:10:00;21.30;99.90
5901;DHT22;2976;49.764;9.796;2023-07-20T08:12:26;20.70;99.90
5901;DHT22;2976;49.764;9.796;2023-07-20T08:14:52;20.50;99.90
5901;DHT22;2976;49.764;9.796;2023-07-20T08:17:18;20.20;99.90
5901;DHT22;2976;49.764;9.796;2023-07-20T08:19:44;20.10;99.90
5901;DHT22;2976;49.764;9.796;2023-07-20T08:22:10;20.00;99.90
5901;DHT22;2976;49.764;9.796;2023-07-20T08:24:39;20.30;99.90
5901;DHT22;2976;49.764;9.796;2023-07-20T08:27:05;20.90;99.90
5901;DHT22;2976;49.764;9.796;2023-07-20T08:29:31;21.60;99.90
5901;DHT22;2976;49.764;9.796;2023-07-20T08:31:56;22.20;98.80
5901;DHT22;2976;49.764;9.796;2023-07-20T08:34:22;23.00;98.00
5901;DHT22;2976;49.764;9.796;2023-07-20T08:36:47;23.30;94.20
5901;DHT22;2976;49.764;9.796;2023-07-20T08:39:13;22.90;92.30
5901;DHT22;2976;49.764;9.796;2023-07-20T08:41:39;23.00;92.50
5901;DHT22;2976;49.764;9.796;2023-07-20T08:44:05;23.20;93.70
5901;DHT22;2976;49.764;9.796;2023-07-20T08:46:31;22.90;93.20
5901;DHT22;2976;49.764;9.796;2023-07-20T08:48:57;22.20;95.70
5901;DHT22;2976;49.764;9.796;2023-07-20T08:51:24;21.60;96.20
5901;DHT22;2976;49.764;9.796;2023-07-20T08:53:51;21.50;98.90
5901;DHT22;2976;49.764;9.796;2023-07-20T08:56:18;21.80;99.70
5901;DHT22;2976;49.764;9.796;2023-07-20T08:58:45;22.00;96.90
5901;DHT22;2976;49.764;9.796;2023-07-20T09:01:11;22.20;95.40
5901;DHT22;2976;49.764;9.796;2023-07-20T09:03:38;22.30;95.70
5901;DHT22;2976;49.764;9.796;2023-07-20T09:06:05;22.50;93.90
5901;DHT22;2976;49.764;9.796;2023-07-20T09:08:31;22.50;93.20
5901;DHT22;2976;49.764;9.796;2023-07-20T09:10:57;22.30;90.20
5901;DHT22;2976;49.764;9.796;2023-07-20T09:13:25;22.50;91.00
5901;DHT22;2976;49.764;9.796;2023-07-20T09:15:54;22.80;89.80
5901;DHT22;2976;49.764;9.796;2023-07-20T09:18:27;22.90;90.90
5901;DHT22;2976;49.764;9.796;2023-07-20T09:20:57;23.20;89.80
5901;DHT22;2976;49.764;9.796;2023-07-20T09:23:36;23.00;90.50
5901;DHT22;2976;49.764;9.796;2023-07-20T09:26:10;23.20;90.70
5901;DHT22;2976;49.764;9.796;2023-07-20T09:28:52;22.80;86.80
5901;DHT22;2976;49.764;9.796;2023-07-20T09:31:19;22.60;85.20
5901;DHT22;2976;49.764;9.796;2023-07-20T09:33:46;22.60;87.20
5901;DHT22;2976;49.764;9.796;2023-07-20T09:36:12;22.90;89.00
5901;DHT22;2976;49.764;9.796;2023-07-20T09:38:41;23.10;87.70
5901;DHT22;2976;49.764;9.796;2023-07-20T09:41:18;22.90;89.20
5901;DHT22;2976;49.764;9.796;2023-07-20T09:43:43;22.30;90.10
5901;DHT22;2976;49.764;9.796;2023-07-20T09:46:10;21.90;91.10
5901;DHT22;2976;49.764;9.796;2023-07-20T09:48:36;22.20;90.40
5901;DHT22;2976;49.764;9.796;2023-07-20T09:51:02;22.60;90.90
5901;DHT22;2976;49.764;9.796;2023-07-20T09:53:28;22.90;90.00
5901;DHT22;2976;49.764;9.796;2023-07-20T09:55:55;23.00;84.60
5901;DHT22;2976;49.764;9.796;2023-07-20T09:58:22;23.20;87.20
5901;DHT22;2976;49.764;9.796;2023-07-20T10:00:48;23.30;89.40
5901;DHT22;2976;49.764;9.796;2023-07-20T10:03:19;23.10;86.60
5901;DHT22;2976;49.764;9.796;2023-07-20T10:05:54;22.90;86.80
5901;DHT22;2976;49.764;9.796;2023-07-20T10:08:24;22.50;87.40
5901;DHT22;2976;49.764;9.796;2023-07-20T10:10:50;22.70;86.90
5901;DHT22;2976;49.764;9.796;2023-07-20T10:13:26;22.80;85.70
5901;DHT22;2976;49.764;9.796;2023-07-20T10:16:03;23.30;81.10
5901;DHT22;2976;49.764;9.796;2023-07-20T10:19:03;23.60;80.20
5901;DHT22;2976;49.764;9.796;2023-07-20T10:21:29;23.40;73.70
5901;DHT22;2976;49.764;9.796;2023-07-20T10:23:59;23.50;73.20
5901;DHT22;2976;49.764;9.796;2023-07-20T10:26:26;23.60;73.40
5901;DHT22;2976;49.764;9.796;2023-07-20T10:28:52;23.80;72.00
5901;DHT22;2976;49.764;9.796;2023-07-20T10:31:18;23.40;71.20
5901;DHT22;2976;49.764;9.796;2023-07-20T10:33:44;23.20;71.60
5901;DHT22;2976;49.764;9.796;2023-07-20T10:36:11;23.40;73.10
5901;DHT22;2976;49.764;9.796;2023-07-20T10:38:42;23.60;70.70
5901;DHT22;2976;49.764;9.796;2023-07-20T10:41:22;23.50;71.30
5901;DHT22;2976;49.764;9.796;2023-07-20T10:43:50;23.60;70.30
5901;DHT22;2976;49.764;9.796;2023-07-20T10:49:08;24.20;70.30
5901;DHT22;2976;49.764;9.796;2023-07-20T10:51:42;24.20;70.40
5901;DHT22;2976;49.764;9.796;2023-07-20T10:54:10;24.30;72.20
5901;DHT22;2976;49.764;9.796;2023-07-20T10:56:56;24.30;72.30
5901;DHT22;2976;49.764;9.796;2023-07-20T11:01:55;24.00;70.00
5901;DHT22;2976;49.764;9.796;2023-07-20T11:04:38;24.20;67.20
5901;DHT22;2976;49.764;9.796;2023-07-20T11:07:05;24.20;65.60
5901;DHT22;2976;49.764;9.796;2023-07-20T11:09:34;24.10;67.60
5901;DHT22;2976;49.764;9.796;2023-07-20T11:12:29;24.10;63.00
5901;DHT22;2976;49.764;9.796;2023-07-20T11:14:56;24.20;66.40
5901;DHT22;2976;49.764;9.796;2023-07-20T11:17:30;24.10;62.70
5901;DHT22;2976;49.764;9.796;2023-07-20T11:19:59;24.20;60.60
5901;DHT22;2976;49.764;9.796;2023-07-20T11:22:31;24.50;63.20
5901;DHT22;2976;49.764;9.796;2023-07-20T11:24:57;24.80;63.30
5901;DHT22;2976;49.764;9.796;2023-07-20T11:27:23;24.90;63.70
5901;DHT22;2976;49.764;9.796;2023-07-20T11:29:49;24.50;59.90
5901;DHT22;2976;49.764;9.796;2023-07-20T11:32:22;24.80;62.50
5901;DHT22;2976;49.764;9.796;2023-07-20T11:34:48;24.90;63.50
5901;DHT22;2976;49.764;9.796;2023-07-20T11:37:15;25.00;62.60
5901;DHT22;2976;49.764;9.796;2023-07-20T11:39:40;24.80;60.00
5901;DHT22;2976;49.764;9.796;2023-07-20T11:42:06;24.70;62.20
5901;DHT22;2976;49.764;9.796;2023-07-20T11:44:32;24.70;61.60
5901;DHT22;2976;49.764;9.796;2023-07-20T11:47:02;25.00;63.40
5901;DHT22;2976;49.764;9.796;2023-07-20T11:49:29;25.30;62.80
5901;DHT22;2976;49.764;9.796;2023-07-20T11:51:54;25.60;63.80
5901;DHT22;2976;49.764;9.796;2023-07-20T11:54:20;25.50;60.90
5901;DHT22;2976;49.764;9.796;2023-07-20T11:56:46;25.40;62.70
5901;DHT22;2976;49.764;9.796;2023-07-20T11:59:11;25.50;61.80
5901;DHT22;2976;49.764;9.796;2023-07-20T12:01:37;25.40;61.90
5901;DHT22;2976;49.764;9.796;2023-07-20T12:04:03;25.30;63.90
5901;DHT22;2976;49.764;9.796;2023-07-20T12:06:30;25.00;64.50
5901;DHT22;2976;49.764;9.796;2023-07-20T12:08:57;25.40;63.50
5901;DHT22;2976;49.764;9.796;2023-07-20T12:11:36;25.30;63.80
5901;DHT22;2976;49.764;9.796;2023-07-20T12:14:03;25.30;62.90
5901;DHT22;2976;49.764;9.796;2023-07-20T12:16:29;25.10;60.20
5901;DHT22;2976;49.764;9.796;2023-07-20T12:21:27;24.80;62.90
5901;DHT22;2976;49.764;9.796;2023-07-20T12:23:56;24.80;62.80
5901;DHT22;2976;49.764;9.796;2023-07-20T12:26:22;24.70;63.30
5901;DHT22;2976;49.764;9.796;2023-07-20T12:28:49;24.80;65.10
5901;DHT22;2976;49.764;9.796;2023-07-20T12:31:15;24.50;63.60
5901;DHT22;2976;49.764;9.796;2023-07-20T12:33:41;24.10;66.90
5901;DHT22;2976;49.764;9.796;2023-07-20T12:36:09;24.20;66.20
5901;DHT22;2976;49.764;9.796;2023-07-20T12:38:35;24.50;64.30
5901;DHT22;2976;49.764;9.796;2023-07-20T12:41:01;24.60;65.20
5901;DHT22;2976;49.764;9.796;2023-07-20T12:43:28;24.70;64.80
5901;DHT22;2976;49.764;9.796;2023-07-20T12:45:54;24.70;64.60
5901;DHT22;2976;49.764;9.796;2023-07-20T12:48:20;24.70;64.80
5901;DHT22;2976;49.764;9.796;2023-07-20T12:50:46;24.80;63.70
5901;DHT22;2976;49.764;9.796;2023-07-20T12:53:11;24.90;61.60
5901;DHT22;2976;49.764;9.796;2023-07-20T12:55:38;25.30;58.70
5901;DHT22;2976;49.764;9.796;2023-07-20T12:58:04;25.50;60.20
5901;DHT22;2976;49.764;9.796;2023-07-20T13:00:30;25.30;60.50
5901;DHT22;2976;49.764;9.796;2023-07-20T13:02:56;24.80;59.30
5901;DHT22;2976;49.764;9.796;2023-07-20T13:05:21;24.90;59.50
5901;DHT22;2976;49.764;9.796;2023-07-20T13:07:47;24.80;59.90
5901;DHT22;2976;49.764;9.796;2023-07-20T13:10:13;25.00;60.40
5901;DHT22;2976;49.764;9.796;2023-07-20T13:12:38;24.70;61.40
5901;DHT22;2976;49.764;9.796;2023-07-20T13:15:06;24.40;60.90
5901;DHT22;2976;49.764;9.796;2023-07-20T13:17:39;24.10;61.70
5901;DHT22;2976;49.764;9.796;2023-07-20T13:20:09;24.00;62.10
5901;DHT22;2976;49.764;9.796;2023-07-20T13:22:36;24.10;61.20
5901;DHT22;2976;49.764;9.796;2023-07-20T13:25:02;24.10;61.60
5901;DHT22;2976;49.764;9.796;2023-07-20T13:27:28;24.30;61.70
5901;DHT22;2976;49.764;9.796;2023-07-20T13:29:55;24.80;60.40
5901;DHT22;2976;49.764;9.796;2023-07-20T13:32:21;25.10;62.60
5901;DHT22;2976;49.764;9.796;2023-07-20T13:34:47;25.10;61.70
5901;DHT22;2976;49.764;9.796;2023-07-20T13:37:13;25.00;62.90
5901;DHT22;2976;49.764;9.796;2023-07-20T13:39:39;24.80;61.60
5901;DHT22;2976;49.764;9.796;2023-07-20T13:42:05;24.60;63.30
5901;DHT22;2976;49.764;9.796;2023-07-20T13:44:31;24.70;63.50
5901;DHT22;2976;49.764;9.796;2023-07-20T13:46:57;24.60;64.50
5901;DHT22;2976;49.764;9.796;2023-07-20T13:49:23;24.70;63.30
5901;DHT22;2976;49.764;9.796;2023-07-20T13:51:49;24.80;62.60
5901;DHT22;2976;49.764;9.796;2023-07-20T13:54:14;25.00;60.50
5901;DHT22;2976;49.764;9.796;2023-07-20T13:56:40;25.00;62.20
5901;DHT22;2976;49.764;9.796;2023-07-20T13:59:05;24.90;63.10
5901;DHT22;2976;49.764;9.796;2023-07-20T14:01:31;24.70;62.10
5901;DHT22;2976;49.764;9.796;2023-07-20T14:03:58;24.50;62.80
5901;DHT22;2976;49.764;9.796;2023-07-20T14:06:24;24.50;60.10
5901;DHT22;2976;49.764;9.796;2023-07-20T14:08:50;24.50;58.60
5901;DHT22;2976;49.764;9.796;2023-07-20T14:11:16;24.30;61.20
5901;DHT22;2976;49.764;9.796;2023-07-20T14:13:42;24.40;59.70
5901;DHT22;2976;49.764;9.796;2023-07-20T14:16:07;24.50;60.10
5901;DHT22;2976;49.764;9.796;2023-07-20T14:18:33;24.70;60.50
5901;DHT22;2976;49.764;9.796;2023-07-20T14:20:59;24.90;59.10
5901;DHT22;2976;49.764;9.796;2023-07-20T14:23:25;25.10;61.10
5901;DHT22;2976;49.764;9.796;2023-07-20T14:25:50;25.10;59.30
5901;DHT22;2976;49.764;9.796;2023-07-20T14:28:16;24.90;57.70
5901;DHT22;2976;49.764;9.796;2023-07-20T14:30:42;24.70;57.90
5901;DHT22;2976;49.764;9.796;2023-07-20T14:33:08;24.40;59.60
5901;DHT22;2976;49.764;9.796;2023-07-20T14:35:34;24.20;61.20
5901;DHT22;2976;49.764;9.796;2023-07-20T14:38:00;24.10;59.80
5901;DHT22;2976;49.764;9.796;2023-07-20T14:40:26;23.90;60.70
5901;DHT22;2976;49.764;9.796;2023-07-20T14:42:52;23.70;60.30
5901;DHT22;2976;49.764;9.796;2023-07-20T14:45:18;23.60;61.50
5901;DHT22;2976;49.764;9.796;2023-07-20T14:47:44;23.70;60.40
5901;DHT22;2976;49.764;9.796;2023-07-20T14:50:10;23.80;60.80
5901;DHT22;2976;49.764;9.796;2023-07-20T14:52:36;23.70;61.80
5901;DHT22;2976;49.764;9.796;2023-07-20T14:55:02;23.60;61.80
5901;DHT22;2976;49.764;9.796;2023-07-20T14:57:27;23.70;59.80
5901;DHT22;2976;49.764;9.796;2023-07-20T14:59:53;24.10;60.00
5901;DHT22;2976;49.764;9.796;2023-07-20T15:02:20;24.60;61.00
5901;DHT22;2976;49.764;9.796;2023-07-20T15:04:47;24.90;57.70
5901;DHT22;2976;49.764;9.796;2023-07-20T15:07:12;24.90;57.00
5901;DHT22;2976;49.764;9.796;2023-07-20T15:09:38;24.80;57.90
5901;DHT22;2976;49.764;9.796;2023-07-20T15:12:05;24.60;58.70
5901;DHT22;2976;49.764;9.796;2023-07-20T15:14:30;24.80;59.90
5901;DHT22;2976;49.764;9.796;2023-07-20T15:16:56;24.80;60.30
5901;DHT22;2976;49.764;9.796;2023-07-20T15:19:21;24.70;60.50
5901;DHT22;2976;49.764;9.796;2023-07-20T15:21:47;24.50;60.30
5901;DHT22;2976;49.764;9.796;2023-07-20T15:24:13;24.60;59.50
5901;DHT22;2976;49.764;9.796;2023-07-20T15:26:39;24.60;59.00
5901;DHT22;2976;49.764;9.796;2023-07-20T15:29:06;24.50;60.60
5901;DHT22;2976;49.764;9.796;2023-07-20T15:31:32;24.30;60.20
5901;DHT22;2976;49.764;9.796;2023-07-20T15:33:57;24.40;58.90
5901;DHT22;2976;49.764;9.796;2023-07-20T15:36:23;24.30;60.30
5901;DHT22;2976;49.764;9.796;2023-07-20T15:38:49;24.20;58.80
5901;DHT22;2976;49.764;9.796;2023-07-20T15:41:14;24.10;61.80
5901;DHT22;2976;49.764;9.796;2023-07-20T15:43:41;24.20;58.30
5901;DHT22;2976;49.764;9.796;2023-07-20T15:48:45;24.30;58.20
5901;DHT22;2976;49.764;9.796;2023-07-20T15:51:11;24.40;58.10
5901;DHT22;2976;49.764;9.796;2023-07-20T15:53:36;24.40;59.30
5901;DHT22;2976;49.764;9.796;2023-07-20T15:56:02;24.30;59.60
5901;DHT22;2976;49.764;9.796;2023-07-20T15:58:29;24.20;60.70
5901;DHT22;2976;49.764;9.796;2023-07-20T16:00:55;24.20;61.50
5901;DHT22;2976;49.764;9.796;2023-07-20T16:03:21;24.20;61.50
5901;DHT22;2976;49.764;9.796;2023-07-20T16:05:47;24.10;60.20
5901;DHT22;2976;49.764;9.796;2023-07-20T16:08:13;23.80;63.40
5901;DHT22;2976;49.764;9.796;2023-07-20T16:10:38;23.50;64.30
5901;DHT22;2976;49.764;9.796;2023-07-20T16:13:04;23.30;64.10
5901;DHT22;2976;49.764;9.796;2023-07-20T16:15:30;23.20;65.30
5901;DHT22;2976;49.764;9.796;2023-07-20T16:17:55;23.20;65.80
5901;DHT22;2976;49.764;9.796;2023-07-20T16:20:21;23.40;65.60